sensor_id;sensor_type;location;lat;lon;timestamp;temperature;humidity
5055;DHT22;13829;48.990;8.346;2023-10-31T00:01:07;13.20;99.90
5055;DHT22;13829;48.990;8.346;2023-10-31T00:03:34;13.20;99.90
5055;DHT22;13829;48.990;8.346;2023-10-31T00:06:02;12.90;99.90
5055;DHT22;13829;48.990;8.346;2023-10-31T00:08:31;13.00;99.90
5055;DHT22;13829;48.990;8.346;2023-10-31T00:10:58;12.90;99.90
5055;DHT22;13829;48.990;8.346;2023-10-31T00:13:25;12.90;99.90
5055;DHT22;13829;48.990;8.346;2023-10-31T00:15:52;12.90;99.90
5055;DHT22;13829;48.990;8.346;2023-10-31T00:18:19;12.80;99.90
5055;DHT22;13829;48.990;8.346;2023-10-31T00:20:46;12.80;99.90
5055;DHT22;13829;48.990;8.346;2023-10-31T00:23:14;12.80;99.90
5055;DHT22;13829;48.990;8.346;2023-10-31T00:25:43;12.80;99.90
5055;DHT22;13829;48.990;8.346;2023-10-31T00:28:10;12.80;99.90
5055;DHT22;13829;48.990;8.346;2023-10-31T00:30:37;12.80;99.90
5055;DHT22;13829;48.990;8.346;2023-10-31T00:33:04;12.80;99.90
5055;DHT22;13829;48.990;8.346;2023-10-31T00:35:31;12.70;99.90
5055;DHT22;13829;48.990;8.346;2023-10-31T00:37:58;13.10;99.90
5055;DHT22;13829;48.990;8.346;2023-10-31T00:40:25;12.60;99.90
5055;DHT22;13829;48.990;8.346;2023-10-31T00:42:54;12.70;99.90
5055;DHT22;13829;48.990;8.346;2023-10-31T00:45:23;12.60;99.90
5055;DHT22;13829;48.990;8.346;2023-10-31T00:47:50;12.50;99.90
5055;DHT22;13829;48.990;8.346;2023-10-31T00:50:17;12.50;99.90
5055;DHT22;13829;48.990;8.346;2023-10-31T00:52:44;12.50;99.90
5055;DHT22;13829;48.990;8.346;2023-10-31T00:55:11;12.40;99.90
5055;DHT22;13829;48.990;8.346;2023-10-31T00:57:38;12.40;99.90
5055;DHT22;13829;48.990;8.346;2023-10-31T01:00:08;12.40;99.90
5055;DHT22;13829;48.990;8.346;2023-10-31T01:02:35;12.40;99.90
5055;DHT22;13829;48.990;8.346;2023-10-31T01:05:02;12.50;99.90
5055;DHT22;13829;48.990;8.346;2023-10-31T01:07:30;12.50;99.90
5055;DHT22;13829;48.990;8.346;2023-10-31T01:09:56;12.50;99.90
5055;DHT22;13829;48.990;8.346;2023-10-31T01:12:23;12.50;99.90
5055;DHT22;13829;48.990;8.346;2023-10-31T01:14:53;12.60;99.90
5055;DHT22;13829;48.990;8.346;2023-10-31T01:17:21;12.60;99.90
5055;DHT22;13829;48.990;8.346;2023-10-31T01:19:48;12.60;99.90
5055;DHT22;13829;48.990;8.346;2023-10-31T01:22:15;12.60;99.90
5055;DHT22;13829;48.990;8.346;2023-10-31T01:24:43;12.60;99.90
5055;DHT22;13829;48.990;8.346;2023-10-31T01:27:10;12.50;99.90
5055;DHT22;13829;48.990;8.346;2023-10-31T01:29:36;12.50;99.90
5055;DHT22;13829;48.990;8.346;2023-10-31T01:32:04;12.50;99.90
5055;DHT22;13829;48.990;8.346;2023-10-31T01:34:33;12.50;99.90
5055;DHT22;13829;48.990;8.346;2023-10-31T01:37:00;12.50;99.90
5055;DHT22;13829;48.990;8.346;2023-10-31T01:39:26;12.50;99.90
5055;DHT22;13829;48.990;8.346;2023-10-31T01:41:53;12.50;99.90
5055;DHT22;13829;48.990;8.346;2023-10-31T01:44:21;12.40;99.90
5055;DHT22;13829;48.990;8.346;2023-10-31T01:46:48;12.40;99.90
5055;DHT22;13829;48.990;8.346;2023-10-31T01:49:15;12.30;99.90
5055;DHT22;13829;48.990;8.346;2023-10-31T01:51:44;12.30;99.90
5055;DHT22;13829;48.990;8.346;2023-10-31T01:54:12;12.20;99.90
5055;DHT22;13829;48.990;8.346;2023-10-31T01:56:41;12.20;99.90
5055;DHT22;13829;48.990;8.346;2023-10-31T01:59:09;12.10;99.90
5055;DHT22;13829;48.990;8.346;2023-10-31T02:01:38;12.00;99.90
5055;DHT22;13829;48.990;8.346;2023-10-31T02:04:06;11.90;99.90
5055;DHT22;13829;48.990;8.346;2023-10-31T02:06:33;11.90;99.90
5055;DHT22;13829;48.990;8.346;2023-10-31T02:09:01;11.90;99.90
5055;DHT22;13829;48.990;8.346;2023-10-31T02:11:28;11.90;99.90
5055;DHT22;13829;48.990;8.346;2023-10-31T02:13:55;11.70;99.90
5055;DHT22;13829;48.990;8.346;2023-10-31T02:16:22;11.80;99.90
5055;DHT22;13829;48.990;8.346;2023-10-31T02:18:51;11.70;99.90
5055;DHT22;13829;48.990;8.346;2023-10-31T02:21:19;11.80;99.90
5055;DHT22;13829;48.990;8.346;2023-10-31T02:23:57;11.70;99.90
5055;DHT22;13829;48.990;8.346;2023-10-31T02:26:28;11.70;99.90
5055;DHT22;13829;48.990;8.346;2023-10-31T02:28:56;11.70;99.90
5055;DHT22;13829;48.990;8.346;2023-10-31T02:31:23;11.80;99.90
5055;DHT22;13829;48.990;8.346;2023-10-31T02:33:51;11.90;99.90
5055;DHT22;13829;48.990;8.346;2023-10-31T02:36:18;12.00;99.90
5055;DHT22;13829;48.990;8.346;2023-10-31T02:38:45;12.40;99.90
5055;DHT22;13829;48.990;8.346;2023-10-31T02:41:14;12.10;99.90
5055;DHT22;13829;48.990;8.346;2023-10-31T02:43:42;12.10;99.90
5055;DHT22;13829;48.990;8.346;2023-10-31T02:46:09;12.20;99.90
5055;DHT22;13829;48.990;8.346;2023-10-31T02:48:37;12.20;99.90
5055;DHT22;13829;48.990;8.346;2023-10-31T02:51:05;12.30;99.90
5055;DHT22;13829;48.990;8.346;2023-10-31T02:53:32;12.30;99.90
5055;DHT22;13829;48.990;8.346;2023-10-31T02:56:00;12.30;99.90
5055;DHT22;13829;48.990;8.346;2023-10-31T02:58:28;12.30;99.90
5055;DHT22;13829;48.990;8.346;2023-10-31T03:00:55;12.20;99.90
5055;DHT22;13829;48.990;8.346;2023-10-31T03:03:22;12.30;99.90
5055;DHT22;13829;48.990;8.346;2023-10-31T03:05:49;12.30;99.90
5055;DHT22;13829;48.990;8.346;2023-10-31T03:08:16;12.40;99.90
5055;DHT22;13829;48.990;8.346;2023-10-31T03:10:47;12.40;99.90
5055;DHT22;13829;48.990;8.346;2023-10-31T03:13:16;12.50;99.90
5055;DHT22;13829;48.990;8.346;2023-10-31T03:15:45;12.50;99.90
5055;DHT22;13829;48.990;8.346;2023-10-31T03:18:13;12.40;99.90
5055;DHT22;13829;48.990;8.346;2023-10-31T03:20:43;12.40;99.90
5055;DHT22;13829;48.990;8.346;2023-10-31T03:23:11;12.40;99.90
5055;DHT22;13829;48.990;8.346;2023-10-31T03:25:38;12.40;99.90
5055;DHT22;13829;48.990;8.346;2023-10-31T03:28:17;12.40;99.90
5055;DHT22;13829;48.990;8.346;2023-10-31T03:30:47;12.40;99.90
5055;DHT22;13829;48.990;8.346;2023-10-31T03:33:14;12.40;99.90
5055;DHT22;13829;48.990;8.346;2023-10-31T03:35:41;12.40;99.90
5055;DHT22;13829;48.990;8.346;2023-10-31T03:38:08;12.40;99.90
5055;DHT22;13829;48.990;8.346;2023-10-31T03:40:35;12.50;99.90
5055;DHT22;13829;48.990;8.346;2023-10-31T03:43:02;12.50;99.90
5055;DHT22;13829;48.990;8.346;2023-10-31T03:45:29;12.50;99.90
5055;DHT22;13829;48.990;8.346;2023-10-31T03:47:58;12.50;99.90
5055;DHT22;13829;48.990;8.346;2023-10-31T03:50:25;12.50;99.90
5055;DHT22;13829;48.990;8.346;2023-10-31T03:52:52;12.40;99.90
5055;DHT22;13829;48.990;8.346;2023-10-31T03:55:19;12.40;99.90
5055;DHT22;13829;48.990;8.346;2023-10-31T03:57:46;12.40;99.90
5055;DHT22;13829;48.990;8.346;2023-10-31T04:00:14;12.30;99.90
5055;DHT22;13829;48.990;8.346;2023-10-31T04:02:41;12.30;99.90
5055;DHT22;13829;48.990;8.346;2023-10-31T04:05:10;12.30;99.90
5055;DHT22;13829;48.990;8.346;2023-10-31T04:07:37;12.30;99.90
5055;DHT22;13829;48.990;8.346;2023-10-31T04:10:05;12.30;99.90
5055;DHT22;13829;48.990;8.346;2023-10-31T04:12:33;12.30;99.90
5055;DHT22;13829;48.990;8.346;2023-10-31T04:15:02;12.30;99.90
5055;DHT22;13829;48.990;8.346;2023-10-31T04:17:29;12.30;99.90
5055;DHT22;13829;48.990;8.346;2023-10-31T04:19:56;12.40;99.90
5055;DHT22;13829;48.990;8.346;2023-10-31T04:22:25;12.30;99.90
5055;DHT22;13829;48.990;8.346;2023-10-31T04:24:52;12.70;99.90
5055;DHT22;13829;48.990;8.346;2023-10-31T04:27:19;12.40;99.90
5055;DHT22;13829;48.990;8.346;2023-10-31T04:29:46;12.40;99.90
5055;DHT22;13829;48.990;8.346;2023-10-31T04:32:13;12.40;99.90
5055;DHT22;13829;48.990;8.346;2023-10-31T04:34:40;12.30;99.90
5055;DHT22;13829;48.990;8.346;2023-10-31T04:37:07;12.40;99.90
5055;DHT22;13829;48.990;8.346;2023-10-31T04:39:35;12.40;99.90
5055;DHT22;13829;48.990;8.346;2023-10-31T04:42:02;12.40;99.90
5055;DHT22;13829;48.990;8.346;2023-10-31T04:44:30;12.40;99.90
5055;DHT22;13829;48.990;8.346;2023-10-31T04:46:57;12.40;99.90
5055;DHT22;13829;48.990;8.346;2023-10-31T04:49:24;12.30;99.90
5055;DHT22;13829;48.990;8.346;2023-10-31T04:51:51;12.40;99.90
5055;DHT22;13829;48.990;8.346;2023-10-31T04:54:17;12.40;99.90
5055;DHT22;13829;48.990;8.346;2023-10-31T04:56:47;12.40;99.90
5055;DHT22;13829;48.990;8.346;2023-10-31T04:59:14;12.30;99.90
5055;DHT22;13829;48.990;8.346;2023-10-31T05:01:41;12.30;99.90
5055;DHT22;13829;48.990;8.346;2023-10-31T05:04:14;12.30;99.90
5055;DHT22;13829;48.990;8.346;2023-10-31T05:06:41;12.40;99.90
5055;DHT22;13829;48.990;8.346;2023-10-31T05:09:08;12.40;99.90
5055;DHT22;13829;48.990;8.346;2023-10-31T05:11:36;12.40;99.90
5055;DHT22;13829;48.990;8.346;2023-10-31T05:14:04;12.40;99.90
5055;DHT22;13829;48.990;8.346;2023-10-31T05:16:31;12.30;99.90
5055;DHT22;13829;48.990;8.346;2023-10-31T05:18:58;12.30;99.90
5055;DHT22;13829;48.990;8.346;2023-10-31T05:21:30;12.20;99.90
5055;DHT22;13829;48.990;8.346;2023-10-31T05:23:56;12.30;99.90
5055;DHT22;13829;48.990;8.346;2023-10-31T05:26:23;12.20;99.90
5055;DHT22;13829;48.990;8.346;2023-10-31T05:28:50;12.10;99.90
5055;DHT22;13829;48.990;8.346;2023-10-31T05:31:19;12.10;99.90
5055;DHT22;13829;48.990;8.346;2023-10-31T05:33:46;12.20;99.90
5055;DHT22;13829;48.990;8.346;2023-10-31T05:36:18;12.10;99.90
5055;DHT22;13829;48.990;8.346;2023-10-31T05:38:45;12.10;99.90
5055;DHT22;13829;48.990;8.346;2023-10-31T05:41:13;12.20;99.90
5055;DHT22;13829;48.990;8.346;2023-10-31T05:43:41;12.20;99.90
5055;DHT22;13829;48.990;8.346;2023-10-31T05:46:08;12.20;99.90
5055;DHT22;13829;48.990;8.346;2023-10-31T05:48:39;12.20;99.90
5055;DHT22;13829;48.990;8.346;2023-10-31T05:51:11;12.20;99.90
5055;DHT22;13829;48.990;8.346;2023-10-31T05:53:40;12.40;99.90
5055;DHT22;13829;48.990;8.346;2023-10-31T05:56:09;12.30;99.90
5055;DHT22;13829;48.990;8.346;2023-10-31T05:58:37;12.20;99.90
5055;DHT22;13829;48.990;8.346;2023-10-31T06:01:04;12.20;99.90
5055;DHT22;13829;48.990;8.346;2023-10-31T06:03:32;12.30;99.90
5055;DHT22;13829;48.990;8.346;2023-10-31T06:06:00;12.20;99.90
5055;DHT22;13829;48.990;8.346;2023-10-31T06:08:27;12.20;99.90
5055;DHT22;13829;48.990;8.346;2023-10-31T06:10:55;12.30;99.90
5055;DHT22;13829;48.990;8.346;2023-10-31T06:13:22;12.20;99.90
5055;DHT22;13829;48.990;8.346;2023-10-31T06:15:51;12.20;99.90
5055;DHT22;13829;48.990;8.346;2023-10-31T06:18:18;12.30;99.90
5055;DHT22;13829;48.990;8.346;2023-10-31T06:20:45;12.20;99.90
5055;DHT22;13829;48.990;8.346;2023-10-31T06:23:13;12.30;99.90
5055;DHT22;13829;48.990;8.346;2023-10-31T06:25:40;12.30;99.90
5055;DHT22;13829;48.990;8.346;2023-10-31T06:28:07;12.30;99.90
5055;DHT22;13829;48.990;8.346;2023-10-31T06:30:34;12.20;99.90
5055;DHT22;13829;48.990;8.346;2023-10-31T06:33:01;12.20;99.90
5055;DHT22;13829;48.990;8.346;2023-10-31T06:35:28;12.20;99.90
5055;DHT22;13829;48.990;8.346;2023-10-31T06:37:56;12.20;99.90
5055;DHT22;13829;48.990;8.346;2023-10-31T06:40:25;12.20;99.90
5055;DHT22;13829;48.990;8.346;2023-10-31T06:42:52;12.20;99.90
5055;DHT22;13829;48.990;8.346;2023-10-31T06:45:19;12.30;99.90
5055;DHT22;13829;48.990;8.346;2023-10-31T06:47:46;12.20;99.90
5055;DHT22;13829;48.990;8.346;2023-10-31T06:50:13;12.30;99.90
5055;DHT22;13829;48.990;8.346;2023-10-31T06:52:41;12.20;99.90
5055;DHT22;13829;48.990;8.346;2023-10-31T06:55:08;12.20;99.90
5055;DHT22;13829;48.990;8.346;2023-10-31T06:57:36;12.20;99.90
5055;DHT22;13829;48.990;8.346;2023-10-31T07:00:05;12.30;99.90
5055;DHT22;13829;48.990;8.346;2023-10-31T07:02:34;12.20;99.90
5055;DHT22;13829;48.990;8.346;2023-10-31T07:05:01;12.30;99.90
5055;DHT22;13829;48.990;8.346;2023-10-31T07:07:29;12.30;99.90
5055;DHT22;13829;48.990;8.346;2023-10-31T07:09:56;12.30;99.90
5055;DHT22;13829;48.990;8.346;2023-10-31T07:12:23;12.40;99.90
5055;DHT22;13829;48.990;8.346;2023-10-31T07:14:52;12.40;99.90
5055;DHT22;13829;48.990;8.346;2023-10-31T07:17:19;12.40;99.90
5055;DHT22;13829;48.990;8.346;2023-10-31T07:19:46;12.40;99.90
5055;DHT22;13829;48.990;8.346;2023-10-31T07:22:12;12.40;99.90
5055;DHT22;13829;48.990;8.346;2023-10-31T07:24:40;12.40;99.90
5055;DHT22;13829;48.990;8.346;2023-10-31T07:27:08;12.40;99.90
5055;DHT22;13829;48.990;8.346;2023-10-31T07:29:38;12.40;99.90
5055;DHT22;13829;48.990;8.346;2023-10-31T07:32:07;12.50;99.90
5055;DHT22;13829;48.990;8.346;2023-10-31T07:34:34;12.50;99.90
5055;DHT22;13829;48.990;8.346;2023-10-31T07:37:01;12.60;99.90
5055;DHT22;13829;48.990;8.346;2023-10-31T07:39:28;12.60;99.90
5055;DHT22;13829;48.990;8.346;2023-10-31T07:41:55;12.70;99.90
5055;DHT22;13829;48.990;8.346;2023-10-31T07:44:22;12.70;99.90
5055;DHT22;13829;48.990;8.346;2023-10-31T07:46:49;12.70;99.90
5055;DHT22;13829;48.990;8.346;2023-10-31T07:49:17;12.80;99.90
5055;DHT22;13829;48.990;8.346;2023-10-31T07:51:44;12.90;99.90
5055;DHT22;13829;48.990;8.346;2023-10-31T07:54:13;12.90;99.90
5055;DHT22;13829;48.990;8.346;2023-10-31T07:56:41;12.90;99.90
5055;DHT22;13829;48.990;8.346;2023-10-31T07:59:09;13.00;99.90
5055;DHT22;13829;48.990;8.346;2023-10-31T08:01:36;13.10;99.90
5055;DHT22;13829;48.990;8.346;2023-10-31T08:04:03;13.10;99.90
5055;DHT22;13829;48.990;8.346;2023-10-31T08:06:32;13.30;99.90
5055;DHT22;13829;48.990;8.346;2023-10-31T08:08:59;13.30;99.90
5055;DHT22;13829;48.990;8.346;2023-10-31T08:11:26;13.30;99.90
5055;DHT22;13829;48.990;8.346;2023-10-31T08:13:53;13.20;99.90
5055;DHT22;13829;48.990;8.346;2023-10-31T08:16:20;13.30;99.90
5055;DHT22;13829;48.990;8.346;2023-10-31T08:18:48;13.30;99.90
5055;DHT22;13829;48.990;8.346;2023-10-31T08:21:15;13.40;99.90
5055;DHT22;13829;48.990;8.346;2023-10-31T08:23:44;13.50;99.90
5055;DHT22;13829;48.990;8.346;2023-10-31T08:26:12;13.60;99.90
5055;DHT22;13829;48.990;8.346;2023-10-31T08:28:39;13.70;99.90
5055;DHT22;13829;48.990;8.346;2023-10-31T08:31:06;13.50;99.90
5055;DHT22;13829;48.990;8.346;2023-10-31T08:33:33;13.80;99.90
5055;DHT22;13829;48.990;8.346;2023-10-31T08:36:00;13.80;99.90
5055;DHT22;13829;48.990;8.346;2023-10-31T08:38:27;13.90;99.90
5055;DHT22;13829;48.990;8.346;2023-10-31T08:40:56;14.00;99.90
5055;DHT22;13829;48.990;8.346;2023-10-31T08:43:25;14.10;99.90
5055;DHT22;13829;48.990;8.346;2023-10-31T08:45:52;14.10;99.90
5055;DHT22;13829;48.990;8.346;2023-10-31T08:48:19;14.60;99.90
5055;DHT22;13829;48.990;8.346;2023-10-31T08:50:46;14.30;99.90
5055;DHT22;13829;48.990;8.346;2023-10-31T08:53:13;14.30;99.90
5055;DHT22;13829;48.990;8.346;2023-10-31T08:55:40;14.30;99.90
5055;DHT22;13829;48.990;8.346;2023-10-31T08:58:11;14.30;99.90
5055;DHT22;13829;48.990;8.346;2023-10-31T09:00:38;14.30;99.90
5055;DHT22;13829;48.990;8.346;2023-10-31T09:03:06;14.20;99.90
5055;DHT22;13829;48.990;8.346;2023-10-31T09:05:33;14.10;99.90
5055;DHT22;13829;48.990;8.346;2023-10-31T09:08:00;14.10;99.90
5055;DHT22;13829;48.990;8.346;2023-10-31T09:10:27;14.20;99.90
5055;DHT22;13829;48.990;8.346;2023-10-31T09:12:54;14.20;99.90
5055;DHT22;13829;48.990;8.346;2023-10-31T09:15:22;14.10;99.90
5055;DHT22;13829;48.990;8.346;2023-10-31T09:17:50;14.10;99.90
5055;DHT22;13829;48.990;8.346;2023-10-31T09:20:17;14.00;99.90
5055;DHT22;13829;48.990;8.346;2023-10-31T09:22:44;13.90;99.90
5055;DHT22;13829;48.990;8.346;2023-10-31T09:25:11;13.90;99.90
5055;DHT22;13829;48.990;8.346;2023-10-31T09:27:38;13.90;99.90
5055;DHT22;13829;48.990;8.346;2023-10-31T09:30:08;13.80;99.90
5055;DHT22;13829;48.990;8.346;2023-10-31T09:32:36;13.80;99.90
5055;DHT22;13829;48.990;8.346;2023-10-31T09:35:04;13.80;99.90
5055;DHT22;13829;48.990;8.346;2023-10-31T09:37:33;13.80;99.90
5055;DHT22;13829;48.990;8.346;2023-10-31T09:40:00;13.90;99.90
5055;DHT22;13829;48.990;8.346;2023-10-31T09:42:27;13.90;99.90
5055;DHT22;13829;48.990;8.346;2023-10-31T09:44:54;13.90;99.90
5055;DHT22;13829;48.990;8.346;2023-10-31T09:47:22;14.00;99.90
5055;DHT22;13829;48.990;8.346;2023-10-31T09:49:50;14.10;99.90
5055;DHT22;13829;48.990;8.346;2023-10-31T09:52:18;14.20;99.90
5055;DHT22;13829;48.990;8.346;2023-10-31T09:54:47;14.20;99.90
5055;DHT22;13829;48.990;8.346;2023-10-31T09:57:16;14.30;99.90
5055;DHT22;13829;48.990;8.346;2023-10-31T09:59:44;14.40;99.90
5055;DHT22;13829;48.990;8.346;2023-10-31T10:02:11;14.50;99.90
5055;DHT22;13829;48.990;8.346;2023-10-31T10:04:38;14.50;99.90
5055;DHT22;13829;48.990;8.346;2023-10-31T10:07:07;14.60;99.90
5055;DHT22;13829;48.990;8.346;2023-10-31T10:09:34;14.60;99.90
5055;DHT22;13829;48.990;8.346;2023-10-31T10:12:02;14.70;99.90
5055;DHT22;13829;48.990;8.346;2023-10-31T10:14:32;14.60;99.90
5055;DHT22;13829;48.990;8.346;2023-10-31T10:16:59;14.60;99.90
5055;DHT22;13829;48.990;8.346;2023-10-31T10:19:26;14.50;99.90
5055;DHT22;13829;48.990;8.346;2023-10-31T10:21:55;14.40;99.90
5055;DHT22;13829;48.990;8.346;2023-10-31T10:24:25;14.30;99.90
5055;DHT22;13829;48.990;8.346;2023-10-31T10:26:53;14.30;99.90
5055;DHT22;13829;48.990;8.346;2023-10-31T10:29:20;14.20;99.90
5055;DHT22;13829;48.990;8.346;2023-10-31T10:31:47;14.20;99.90
5055;DHT22;13829;48.990;8.346;2023-10-31T10:34:15;14.20;99.90
5055;DHT22;13829;48.990;8.346;2023-10-31T10:36:46;14.20;99.90
5055;DHT22;13829;48.990;8.346;2023-10-31T10:39:19;14.30;99.90
5055;DHT22;13829;48.990;8.346;2023-10-31T10:41:52;14.40;99.90
5055;DHT22;13829;48.990;8.346;2023-10-31T10:44:33;14.50;99.90
5055;DHT22;13829;48.990;8.346;2023-10-31T10:47:03;14.60;99.90
5055;DHT22;13829;48.990;8.346;2023-10-31T10:49:33;14.70;99.90
5055;DHT22;13829;48.990;8.346;2023-10-31T10:52:12;14.70;99.90
5055;DHT22;13829;48.990;8.346;2023-10-31T10:54:45;14.70;99.90
5055;DHT22;13829;48.990;8.346;2023-10-31T10:57:30;14.70;99.90
5055;DHT22;13829;48.990;8.346;2023-10-31T11:00:04;14.50;99.90
5055;DHT22;13829;48.990;8.346;2023-10-31T11:02:35;14.60;99.90
5055;DHT22;13829;48.990;8.346;2023-10-31T11:05:05;14.60;99.90
5055;DHT22;13829;48.990;8.346;2023-10-31T11:07:34;14.60;99.90
5055;DHT22;13829;48.990;8.346;2023-10-31T11:10:02;14.60;99.90
5055;DHT22;13829;48.990;8.346;2023-10-31T11:12:32;14.70;99.90
5055;DHT22;13829;48.990;8.346;2023-10-31T11:15:01;14.80;99.90
5055;DHT22;13829;48.990;8.346;2023-10-31T11:17:31;14.80;99.90
5055;DHT22;13829;48.990;8.346;2023-10-31T11:20:02;14.90;99.90
5055;DHT22;13829;48.990;8.346;2023-10-31T11:22:37;14.90;99.90
5055;DHT22;13829;48.990;8.346;2023-10-31T11:25:06;14.80;99.90
5055;DHT22;13829;48.990;8.346;2023-10-31T11:27:35;14.70;99.90
5055;DHT22;13829;48.990;8.346;2023-10-31T11:30:05;14.70;99.90
5055;DHT22;13829;48.990;8.346;2023-10-31T11:32:33;14.50;99.90
5055;DHT22;13829;48.990;8.346;2023-10-31T11:35:00;14.50;99.90
5055;DHT22;13829;48.990;8.346;2023-10-31T11:37:32;14.50;99.90
5055;DHT22;13829;48.990;8.346;2023-10-31T11:40:18;14.50;99.90
5055;DHT22;13829;48.990;8.346;2023-10-31T11:42:49;14.60;99.90
5055;DHT22;13829;48.990;8.346;2023-10-31T11:45:27;14.50;99.90
5055;DHT22;13829;48.990;8.346;2023-10-31T11:47:55;14.50;99.90
5055;DHT22;13829;48.990;8.346;2023-10-31T11:50:23;14.40;99.90
5055;DHT22;13829;48.990;8.346;2023-10-31T11:53:04;14.50;99.90
5055;DHT22;13829;48.990;8.346;2023-10-31T11:55:34;14.60;99.90
5055;DHT22;13829;48.990;8.346;2023-10-31T11:58:14;14.40;99.90
5055;DHT22;13829;48.990;8.346;2023-10-31T12:00:45;14.60;99.90
5055;DHT22;13829;48.990;8.346;2023-10-31T12:03:15;14.60;99.90
5055;DHT22;13829;48.990;8.346;2023-10-31T12:05:51;14.70;99.90
5055;DHT22;13829;48.990;8.346;2023-10-31T12:08:27;14.70;99.90
5055;DHT22;13829;48.990;8.346;2023-10-31T12:11:09;14.80;99.90
5055;DHT22;13829;48.990;8.346;2023-10-31T12:13:40;14.90;99.90
5055;DHT22;13829;48.990;8.346;2023-10-31T12:16:09;15.00;99.90
5055;DHT22;13829;48.990;8.346;2023-10-31T12:18:38;14.90;99.90
5055;DHT22;13829;48.990;8.346;2023-10-31T12:21:05;15.00;99.90
5055;DHT22;13829;48.990;8.346;2023-10-31T12:23:34;15.00;99.90
5055;DHT22;13829;48.990;8.346;2023-10-31T12:26:01;14.90;99.90
5055;DHT22;13829;48.990;8.346;2023-10-31T12:28:28;14.80;99.90
5055;DHT22;13829;48.990;8.346;2023-10-31T12:30:56;14.80;99.90
5055;DHT22;13829;48.990;8.346;2023-10-31T12:33:26;14.90;99.90
5055;DHT22;13829;48.990;8.346;2023-10-31T12:35:58;15.00;99.90
5055;DHT22;13829;48.990;8.346;2023-10-31T12:38:27;15.00;99.90
5055;DHT22;13829;48.990;8.346;2023-10-31T12:40:55;15.20;99.90
5055;DHT22;13829;48.990;8.346;2023-10-31T12:43:23;15.20;99.90
5055;DHT22;13829;48.990;8.346;2023-10-31T12:45:52;15.20;99.90
5055;DHT22;13829;48.990;8.346;2023-10-31T12:48:24;15.30;99.90
5055;DHT22;13829;48.990;8.346;2023-10-31T12:51:06;15.30;99.90
5055;DHT22;13829;48.990;8.346;2023-10-31T12:53:34;15.20;99.90
5055;DHT22;13829;48.990;8.346;2023-10-31T12:56:01;15.20;99.90
5055;DHT22;13829;48.990;8.346;2023-10-31T12:58:28;15.20;99.90
5055;DHT22;13829;48.990;8.346;2023-10-31T13:00:56;15.10;99.90
5055;DHT22;13829;48.990;8.346;2023-10-31T13:03:24;14.70;99.90
5055;DHT22;13829;48.990;8.346;2023-10-31T13:05:51;14.90;99.90
5055;DHT22;13829;48.990;8.346;2023-10-31T13:08:18;14.80;99.90
5055;DHT22;13829;48.990;8.346;2023-10-31T13:10:45;14.70;99.90
5055;DHT22;13829;48.990;8.346;2023-10-31T13:13:12;14.70;99.90
5055;DHT22;13829;48.990;8.346;2023-10-31T13:15:39;14.70;99.90
5055;DHT22;13829;48.990;8.346;2023-10-31T13:18:07;14.80;99.90
5055;DHT22;13829;48.990;8.346;2023-10-31T13:20:38;14.90;99.90
5055;DHT22;13829;48.990;8.346;2023-10-31T13:23:05;14.90;99.90
5055;DHT22;13829;48.990;8.346;2023-10-31T13:25:32;15.10;99.90
5055;DHT22;13829;48.990;8.346;2023-10-31T13:27:59;15.20;99.90
5055;DHT22;13829;48.990;8.346;2023-10-31T13:30:26;15.30;99.90
5055;DHT22;13829;48.990;8.346;2023-10-31T13:32:53;15.30;99.90
5055;DHT22;13829;48.990;8.346;2023-10-31T13:35:22;15.30;99.90
5055;DHT22;13829;48.990;8.346;2023-10-31T13:37:51;15.30;99.90
5055;DHT22;13829;48.990;8.346;2023-10-31T13:40:18;15.30;99.90
5055;DHT22;13829;48.990;8.346;2023-10-31T13:42:45;15.20;99.90
5055;DHT22;13829;48.990;8.346;2023-10-31T13:45:12;15.20;99.90
5055;DHT22;13829;48.990;8.346;2023-10-31T13:47:39;15.10;99.90
5055;DHT22;13829;48.990;8.346;2023-10-31T13:50:06;14.90;99.90
5055;DHT22;13829;48.990;8.346;2023-10-31T13:52:34;15.10;99.90
5055;DHT22;13829;48.990;8.346;2023-10-31T13:55:03;15.20;99.90
5055;DHT22;13829;48.990;8.346;2023-10-31T13:57:30;15.30;99.90
5055;DHT22;13829;48.990;8.346;2023-10-31T13:59:57;15.40;99.90
5055;DHT22;13829;48.990;8.346;2023-10-31T14:02:25;15.50;99.90
5055;DHT22;13829;48.990;8.346;2023-10-31T14:04:54;15.60;99.90
5055;DHT22;13829;48.990;8.346;2023-10-31T14:07:21;15.70;99.90
5055;DHT22;13829;48.990;8.346;2023-10-31T14:09:49;15.70;99.90
5055;DHT22;13829;48.990;8.346;2023-10-31T14:12:18;15.70;99.90
5055;DHT22;13829;48.990;8.346;2023-10-31T14:14:45;15.90;99.90
5055;DHT22;13829;48.990;8.346;2023-10-31T14:17:13;15.70;99.90
5055;DHT22;13829;48.990;8.346;2023-10-31T14:19:42;15.70;99.90
5055;DHT22;13829;48.990;8.346;2023-10-31T14:22:11;15.70;99.90
5055;DHT22;13829;48.990;8.346;2023-10-31T14:24:39;15.60;99.90
5055;DHT22;13829;48.990;8.346;2023-10-31T14:27:06;15.60;99.90
5055;DHT22;13829;48.990;8.346;2023-10-31T14:29:35;15.60;99.90
5055;DHT22;13829;48.990;8.346;2023-10-31T14:32:06;15.60;99.90
5055;DHT22;13829;48.990;8.346;2023-10-31T14:34:33;15.50;99.90
5055;DHT22;13829;48.990;8.346;2023-10-31T14:37:00;15.50;99.90
5055;DHT22;13829;48.990;8.346;2023-10-31T14:39:27;15.30;99.90
5055;DHT22;13829;48.990;8.346;2023-10-31T14:41:55;15.10;99.90
5055;DHT22;13829;48.990;8.346;2023-10-31T14:44:22;15.00;99.90
5055;DHT22;13829;48.990;8.346;2023-10-31T14:46:50;14.90;99.90
5055;DHT22;13829;48.990;8.346;2023-10-31T14:49:17;14.80;99.90
5055;DHT22;13829;48.990;8.346;2023-10-31T14:51:44;14.70;99.90
5055;DHT22;13829;48.990;8.346;2023-10-31T14:54:11;14.60;99.90
5055;DHT22;13829;48.990;8.346;2023-10-31T14:56:38;14.50;99.90
5055;DHT22;13829;48.990;8.346;2023-10-31T14:59:06;14.60;99.90
5055;DHT22;13829;48.990;8.346;2023-10-31T15:01:33;14.50;99.90
5055;DHT22;13829;48.990;8.346;2023-10-31T15:04:02;14.40;99.90
5055;DHT22;13829;48.990;8.346;2023-10-31T15:06:29;14.40;99.90
5055;DHT22;13829;48.990;8.346;2023-10-31T15:08:56;14.40;99.90
5055;DHT22;13829;48.990;8.346;2023-10-31T15:11:23;14.40;99.90
5055;DHT22;13829;48.990;8.346;2023-10-31T15:13:51;14.40;99.90
5055;DHT22;13829;48.990;8.346;2023-10-31T15:16:18;14.40;99.90
5055;DHT22;13829;48.990;8.346;2023-10-31T15:18:45;14.40;99.90
5055;DHT22;13829;48.990;8.346;2023-10-31T15:21:14;14.40;99.90
5055;DHT22;13829;48.990;8.346;2023-10-31T15:23:41;14.40;99.90
5055;DHT22;13829;48.990;8.346;2023-10-31T15:26:08;14.40;99.90
5055;DHT22;13829;48.990;8.346;2023-10-31T15:28:38;14.40;99.90
5055;DHT22;13829;48.990;8.346;2023-10-31T15:31:05;14.30;99.90
5055;DHT22;13829;48.990;8.346;2023-10-31T15:33:32;14.30;99.90
5055;DHT22;13829;48.990;8.346;2023-10-31T15:35:59;14.30;99.90
5055;DHT22;13829;48.990;8.346;2023-10-31T15:38:28;14.30;99.90
5055;DHT22;13829;48.990;8.346;2023-10-31T15:40:55;14.20;99.90
5055;DHT22;13829;48.990;8.346;2023-10-31T15:43:22;14.20;99.90
5055;DHT22;13829;48.990;8.346;2023-10-31T15:45:49;14.20;99.90
5055;DHT22;13829;48.990;8.346;2023-10-31T15:48:16;14.20;99.90
5055;DHT22;13829;48.990;8.346;2023-10-31T15:50:43;14.10;99.90